createdAt,value
2022-12-19T00:01:24.907Z,-5.1
2022-12-19T00:04:24.853Z,-5
2022-12-19T00:07:24.856Z,-5
2022-12-19T00:10:24.996Z,-5
2022-12-19T00:13:24.864Z,-5
2022-12-19T00:16:24.924Z,-4.9
2022-12-19T00:19:24.885Z,-4.9
2022-12-19T00:22:24.880Z,-4.9
2022-12-19T00:25:24.942Z,-5
2022-12-19T00:28:25.006Z,-4.9
2022-12-19T00:31:24.942Z,-4.9
2022-12-19T00:34:24.907Z,-4.9
2022-12-19T00:37:24.899Z,-4.9
2022-12-19T00:40:24.912Z,-4.9
2022-12-19T00:43:24.909Z,-4.8
2022-12-19T00:46:25.032Z,-4.8
2022-12-19T00:49:24.913Z,-4.8
2022-12-19T00:52:24.931Z,-4.8
2022-12-19T00:55:24.942Z,-4.8
2022-12-19T00:58:24.923Z,-4.8
2022-12-19T01:01:25.058Z,-4.7
2022-12-19T01:04:29.370Z,-4.7
2022-12-19T01:07:24.932Z,-4.7
2022-12-19T01:10:24.948Z,-4.7
2022-12-19T01:13:24.949Z,-4.6
2022-12-19T01:16:24.988Z,-4.6
2022-12-19T01:19:24.964Z,-4.6
2022-12-19T01:22:25.086Z,-4.6
2022-12-19T01:25:24.971Z,-4.6
2022-12-19T01:28:24.970Z,-4.6
2022-12-19T01:31:25.064Z,-4.5
2022-12-19T01:34:24.985Z,-4.5
2022-12-19T01:37:24.992Z,-4.5
2022-12-19T01:40:25.126Z,-4.5
2022-12-19T01:43:24.995Z,-4.5
2022-12-19T01:46:25.014Z,-4.5
2022-12-19T01:49:25.256Z,-4.4
2022-12-19T01:52:24.998Z,-4.4
2022-12-19T01:55:25.014Z,-4.4
2022-12-19T01:58:25.003Z,-4.4
2022-12-19T02:01:25.038Z,-4.4
2022-12-19T02:04:24.996Z,-4.4
2022-12-19T02:07:24.995Z,-4.3
2022-12-19T02:10:25.012Z,-4.3
2022-12-19T02:13:25.006Z,-4.3
2022-12-19T02:16:27.473Z,-4.3
2022-12-19T02:19:25.017Z,-4.3
2022-12-19T02:22:25.010Z,-4.3
2022-12-19T02:25:25.039Z,-4.2
2022-12-19T02:28:25.044Z,-4.2
2022-12-19T02:31:25.080Z,-4.2
2022-12-19T02:34:25.164Z,-4.2
2022-12-19T02:37:25.207Z,-4.1
2022-12-19T02:40:25.062Z,-4.1
2022-12-19T02:43:25.055Z,-4.1
2022-12-19T02:46:25.104Z,-4
2022-12-19T02:49:30.487Z,-4
2022-12-19T02:52:25.187Z,-4
2022-12-19T02:55:25.083Z,-3.9
2022-12-19T02:58:25.075Z,-3.9
2022-12-19T03:01:25.181Z,-3.8
2022-12-19T03:04:25.095Z,-3.8
2022-12-19T03:07:25.094Z,-3.8
2022-12-19T03:10:25.232Z,-3.7
2022-12-19T03:13:25.106Z,-3.7
2022-12-19T03:16:25.209Z,-3.6
2022-12-19T03:19:25.114Z,-3.6
2022-12-19T03:22:25.117Z,-3.6
2022-12-19T03:25:25.131Z,-3.5
2022-12-19T03:28:25.246Z,-3.5
2022-12-19T03:31:25.127Z,-3.5
2022-12-19T03:34:25.129Z,-3.4
2022-12-19T03:37:25.140Z,-3.4
2022-12-19T03:40:25.153Z,-3.5
2022-12-19T03:43:25.145Z,-3.5
2022-12-19T03:46:25.317Z,-3.4
2022-12-19T03:49:25.170Z,-3.4
2022-12-19T03:52:25.195Z,-3.4
2022-12-19T03:55:25.219Z,-3.4
2022-12-19T03:58:25.199Z,-3.3
2022-12-19T04:01:25.278Z,-3.3
2022-12-19T04:04:25.338Z,-3.3
2022-12-19T04:07:25.226Z,-3.2
2022-12-19T04:10:25.249Z,-3.2
2022-12-19T04:13:25.234Z,-3.2
2022-12-19T04:16:25.250Z,-3.2
2022-12-19T04:19:25.244Z,-3.2
2022-12-19T04:22:25.371Z,-3.2
2022-12-19T04:25:29.321Z,-3.1
2022-12-19T04:28:25.261Z,-3.1
2022-12-19T04:31:25.327Z,-3.1
2022-12-19T04:34:25.280Z,-3.1
2022-12-19T04:37:25.271Z,-3.1
2022-12-19T04:40:25.408Z,-3
2022-12-19T04:43:25.283Z,-3
2022-12-19T04:46:25.338Z,-3
2022-12-19T04:49:25.298Z,-3
2022-12-19T04:52:25.302Z,-3
2022-12-19T04:55:25.312Z,-3
2022-12-19T04:58:25.431Z,-3
2022-12-19T05:01:25.421Z,-3
2022-12-19T05:04:25.317Z,-3
2022-12-19T05:07:25.317Z,-3.1
2022-12-19T05:10:25.333Z,-3.1
2022-12-19T05:13:25.332Z,-3.1
2022-12-19T05:16:25.491Z,-3.1
2022-12-19T05:19:25.344Z,-3.1
2022-12-19T05:22:25.345Z,-3.1
2022-12-19T05:25:25.370Z,-3.1
2022-12-19T05:28:25.352Z,-3
2022-12-19T05:31:25.398Z,-3
2022-12-19T05:34:25.487Z,-2.9
2022-12-19T05:37:25.367Z,-2.8
2022-12-19T05:40:25.383Z,-2.8
2022-12-19T05:43:25.398Z,-2.7
2022-12-19T05:46:25.403Z,-2.6
2022-12-19T05:49:25.377Z,-2.6
2022-12-19T05:52:25.505Z,-2.6
2022-12-19T05:55:25.397Z,-2.5
2022-12-19T05:58:25.394Z,-2.4
2022-12-19T06:01:25.465Z,-2.4
2022-12-19T06:04:25.403Z,-2.3
2022-12-19T06:07:25.415Z,-2.2
2022-12-19T06:10:25.549Z,-2.1
2022-12-19T06:13:25.439Z,-2.1
2022-12-19T06:16:25.454Z,-2
2022-12-19T06:19:25.424Z,-1.9
2022-12-19T06:22:25.431Z,-1.9
2022-12-19T06:25:25.449Z,-1.8
2022-12-19T06:28:25.586Z,-1.7
2022-12-19T06:31:25.482Z,-1.7
2022-12-19T06:34:47.179Z,-1.7
2022-12-19T06:37:25.453Z,-1.6
2022-12-19T06:40:25.493Z,-1.6
2022-12-19T06:43:25.463Z,-1.6
2022-12-19T06:46:25.606Z,-1.5
2022-12-19T06:49:25.467Z,-1.5
2022-12-19T06:52:25.469Z,-1.4
2022-12-19T06:55:25.511Z,-1.4
2022-12-19T06:58:25.483Z,-1.3
2022-12-19T07:01:25.578Z,-1.2
2022-12-19T07:04:25.608Z,-1.2
2022-12-19T07:07:25.514Z,-1.2
2022-12-19T07:10:25.637Z,-1.2
2022-12-19T07:13:25.515Z,-1.1
2022-12-19T07:16:25.596Z,-1
2022-12-19T07:19:25.516Z,-1
2022-12-19T07:22:25.651Z,-0.9
2022-12-19T07:25:25.533Z,-0.8
2022-12-19T07:28:25.532Z,-0.7
2022-12-19T07:31:25.558Z,-0.7
2022-12-19T07:34:25.539Z,-0.6
2022-12-19T07:37:25.542Z,-0.5
2022-12-19T07:40:25.586Z,-0.4
2022-12-19T07:43:25.549Z,-0.3
2022-12-19T07:46:25.554Z,-0.2
2022-12-19T07:49:25.562Z,0
2022-12-19T07:52:25.564Z,0.2
2022-12-19T07:55:25.577Z,0.3
2022-12-19T07:58:25.688Z,0.4
2022-12-19T08:01:25.658Z,0.6
2022-12-19T08:04:25.585Z,0.8
2022-12-19T08:07:25.577Z,0.9
2022-12-19T08:10:25.595Z,1
2022-12-19T08:13:25.584Z,1
2022-12-19T08:16:25.777Z,1.1
2022-12-19T08:19:27.534Z,1.2
2022-12-19T08:22:25.597Z,1.2
2022-12-19T08:25:25.615Z,1.2
2022-12-19T08:28:25.607Z,1.3
2022-12-19T08:31:25.678Z,1.3
2022-12-19T08:34:25.745Z,1.3
2022-12-19T08:37:25.623Z,1.3
2022-12-19T08:40:25.671Z,1.3
2022-12-19T08:43:25.636Z,1.4
2022-12-19T08:46:25.683Z,1.4
2022-12-19T08:49:25.639Z,1.4
2022-12-19T08:52:25.779Z,1.5
2022-12-19T08:55:25.667Z,1.5
2022-12-19T08:58:25.667Z,1.5
2022-12-19T09:01:25.755Z,1.5
2022-12-19T09:05:24.507Z,1.6
2022-12-19T09:07:25.672Z,1.6
2022-12-19T09:10:25.805Z,1.6
2022-12-19T09:13:25.771Z,1.6
2022-12-19T09:16:25.743Z,1.7
2022-12-19T09:19:25.679Z,1.7
2022-12-19T09:22:27.711Z,1.7
2022-12-19T09:25:25.697Z,1.7
2022-12-19T09:28:27.565Z,1.8
2022-12-19T09:31:25.777Z,1.8
2022-12-19T09:34:26.092Z,1.9
2022-12-19T09:37:25.709Z,1.9
2022-12-19T09:40:25.717Z,1.9
2022-12-19T09:43:25.716Z,2
2022-12-19T09:46:25.902Z,2
2022-12-19T09:49:25.725Z,2
2022-12-19T09:52:25.999Z,2
2022-12-19T09:55:25.737Z,2.1
2022-12-19T09:58:25.733Z,2.1
2022-12-19T10:01:25.835Z,2.1
2022-12-19T10:04:25.877Z,2.2
2022-12-19T10:07:53.246Z,2.2
2022-12-19T10:11:52.500Z,2.2
2022-12-19T10:13:25.753Z,2.3
2022-12-19T10:16:25.800Z,2.3
2022-12-19T10:19:25.760Z,2.3
2022-12-19T10:22:25.883Z,2.4
2022-12-19T10:25:25.793Z,2.4
2022-12-19T10:28:25.784Z,2.5
2022-12-19T10:31:25.819Z,2.5
2022-12-19T10:34:25.785Z,2.6
2022-12-19T10:37:35.026Z,2.6
2022-12-19T10:40:27.498Z,2.6
2022-12-19T10:43:33.021Z,2.7
2022-12-19T10:46:25.843Z,2.7
2022-12-19T10:49:25.801Z,2.7
2022-12-19T10:52:25.811Z,2.7
2022-12-19T10:55:25.818Z,2.8
2022-12-19T10:58:25.971Z,2.8
2022-12-19T11:01:26.141Z,2.9
2022-12-19T11:04:25.891Z,3
2022-12-19T11:07:25.826Z,3.1
2022-12-19T11:10:46.164Z,3.1
2022-12-19T11:15:45.446Z,3.2
2022-12-19T11:18:23.149Z,3.2
2022-12-19T11:23:23.433Z,3.2
2022-12-19T11:29:15.900Z,3.3
2022-12-19T11:29:28.633Z,3.3
2022-12-19T11:30:22.416Z,3.4
2022-12-19T11:32:20.957Z,3.4
2022-12-19T11:34:25.978Z,3.5
2022-12-19T11:37:25.858Z,3.6
2022-12-19T11:40:25.884Z,3.6
2022-12-19T11:43:42.992Z,3.6
2022-12-19T11:46:25.883Z,3.7
2022-12-19T11:49:25.883Z,3.7
2022-12-19T11:55:25.925Z,3.7
2022-12-19T11:58:25.906Z,3.8
2022-12-19T12:01:25.927Z,3.8
2022-12-19T12:04:25.961Z,3.9
2022-12-19T12:07:38.032Z,3.9
2022-12-19T12:11:45.138Z,4
2022-12-19T12:16:50.957Z,4
2022-12-19T12:21:29.857Z,4
2022-12-19T12:26:25.980Z,4.1
2022-12-19T12:31:03.084Z,4.1
2022-12-19T12:31:35.117Z,4.1
2022-12-19T12:31:35.777Z,4.2
2022-12-19T12:35:25.739Z,4.2
2022-12-19T12:35:25.941Z,4.1
2022-12-19T12:38:07.361Z,4.2
2022-12-19T12:40:26.009Z,4.2
2022-12-19T12:43:25.999Z,4.2
2022-12-19T12:46:26.047Z,4.3
2022-12-19T12:49:25.997Z,4.3
2022-12-19T12:52:26.009Z,4.3
2022-12-19T12:55:26.024Z,4.5
2022-12-19T12:58:26.027Z,4.6
2022-12-19T13:01:26.091Z,4.6
2022-12-19T13:04:26.056Z,4.8
2022-12-19T13:07:26.031Z,4.8
2022-12-19T13:10:26.044Z,4.8
2022-12-19T13:13:26.150Z,4.8
2022-12-19T13:16:26.088Z,4.8
2022-12-19T13:19:28.628Z,4.7
2022-12-19T13:22:26.083Z,4.7
2022-12-19T13:25:26.077Z,4.7
2022-12-19T13:28:26.066Z,4.7
2022-12-19T13:31:26.069Z,4.7
2022-12-19T13:34:26.074Z,4.8
2022-12-19T13:39:52.916Z,4.8
2022-12-19T13:43:26.102Z,4.7
2022-12-19T13:46:26.129Z,4.8
2022-12-19T13:49:26.346Z,4.7
2022-12-19T13:52:26.096Z,4.7
2022-12-19T13:55:26.110Z,4.7
2022-12-19T13:58:28.805Z,4.7
2022-12-19T14:01:26.202Z,4.7
2022-12-19T14:04:26.124Z,4.7
2022-12-19T14:07:30.340Z,4.7
2022-12-19T14:11:28.150Z,4.7
2022-12-19T14:13:40.397Z,4.7
2022-12-19T14:16:34.357Z,4.6
2022-12-19T14:19:26.129Z,4.6
2022-12-19T14:22:26.828Z,4.6
2022-12-19T14:26:10.266Z,4.6
2022-12-19T14:28:28.977Z,4.6
2022-12-19T14:31:26.327Z,4.6
2022-12-19T14:35:29.807Z,4.6
2022-12-19T14:37:31.851Z,4.6
2022-12-19T14:40:26.177Z,4.6
2022-12-19T14:43:58.208Z,4.5
2022-12-19T14:50:16.851Z,4.6
2022-12-19T14:52:52.053Z,4.5
2022-12-19T14:54:19.107Z,4.5
2022-12-19T14:56:03.579Z,4.5
2022-12-19T14:58:51.629Z,4.5
2022-12-19T15:01:26.538Z,4.6
2022-12-19T15:04:33.874Z,4.5
2022-12-19T15:07:26.232Z,4.5
2022-12-19T15:11:02.094Z,4.5
2022-12-19T15:14:50.417Z,4.6
2022-12-19T15:16:26.279Z,4.5
2022-12-19T15:19:26.228Z,4.5
2022-12-19T15:22:26.246Z,4.5
2022-12-19T15:26:01.880Z,4.5
2022-12-19T15:28:26.284Z,4.5
2022-12-19T15:31:26.506Z,4.5
2022-12-19T15:34:36.174Z,4.5
2022-12-19T15:37:26.255Z,4.5
2022-12-19T15:40:26.278Z,4.5
2022-12-19T15:44:01.657Z,4.5
2022-12-19T15:46:26.320Z,4.5
2022-12-19T15:49:26.275Z,4.5
2022-12-19T15:52:26.278Z,4.5
2022-12-19T15:55:26.289Z,4.4
2022-12-19T15:58:26.286Z,4.5
2022-12-19T16:01:26.415Z,4.5
2022-12-19T16:04:26.524Z,4.5
2022-12-19T16:07:26.338Z,4.5
2022-12-19T16:10:26.327Z,4.5
2022-12-19T16:13:26.289Z,4.5
2022-12-19T16:16:26.384Z,4.5
2022-12-19T16:19:26.312Z,4.5
2022-12-19T16:22:26.339Z,4.5
2022-12-19T16:25:26.326Z,4.5
2022-12-19T16:28:26.326Z,4.5
2022-12-19T16:31:26.393Z,4.5
2022-12-19T16:34:26.343Z,4.5
2022-12-19T16:37:31.925Z,4.5
2022-12-19T16:40:26.375Z,4.5
2022-12-19T16:43:26.338Z,4.5
2022-12-19T16:46:26.378Z,4.5
2022-12-19T16:49:26.345Z,4.5
2022-12-19T16:52:26.402Z,4.5
2022-12-19T16:55:26.360Z,4.4
2022-12-19T16:58:26.380Z,4.4
2022-12-19T17:01:26.463Z,4.4
2022-12-19T17:04:26.371Z,4.4
2022-12-19T17:07:26.367Z,4.4
2022-12-19T17:10:26.662Z,4.4
2022-12-19T17:13:26.379Z,4.4
2022-12-19T17:16:26.495Z,4.5
2022-12-19T17:19:26.377Z,4.4
2022-12-19T17:22:26.383Z,4.5
2022-12-19T17:25:26.402Z,4.5
2022-12-19T17:28:26.384Z,4.4
2022-12-19T17:31:26.532Z,4.5
2022-12-19T17:34:26.461Z,4.5
2022-12-19T17:37:26.402Z,4.4
2022-12-19T17:40:26.430Z,4.5
2022-12-19T17:43:26.405Z,4.5
2022-12-19T17:46:26.467Z,4.5
2022-12-19T17:49:26.425Z,4.5
2022-12-19T17:52:26.455Z,4.5
2022-12-19T17:55:26.437Z,4.5
2022-12-19T17:58:26.429Z,4.6
2022-12-19T18:01:26.586Z,4.5
2022-12-19T18:04:26.440Z,4.5
2022-12-19T18:07:26.446Z,4.6
2022-12-19T18:10:26.485Z,4.5
2022-12-19T18:13:26.463Z,4.5
2022-12-19T18:16:26.517Z,4.6
2022-12-19T18:19:26.455Z,4.6
2022-12-19T18:22:26.463Z,4.6
2022-12-19T18:25:26.477Z,4.6
2022-12-19T18:28:26.505Z,4.7
2022-12-19T18:31:26.580Z,4.6
2022-12-19T18:34:26.491Z,4.6
2022-12-19T18:37:26.479Z,4.5
2022-12-19T18:40:31.287Z,4.5
2022-12-19T18:43:26.481Z,4.5
2022-12-19T18:46:26.581Z,4.4
2022-12-19T18:49:26.490Z,4.4
2022-12-19T18:52:26.490Z,4.3
2022-12-19T18:55:26.503Z,4.3
2022-12-19T18:58:26.491Z,4.3
2022-12-19T19:01:26.564Z,4.3
2022-12-19T19:04:26.550Z,4.3
2022-12-19T19:07:26.509Z,4.3
2022-12-19T19:10:26.504Z,4.3
2022-12-19T19:13:26.500Z,4.3
2022-12-19T19:16:26.564Z,4.3
2022-12-19T19:19:26.505Z,4.3
2022-12-19T19:22:26.572Z,4.3
2022-12-19T19:25:26.521Z,4.3
2022-12-19T19:28:26.541Z,4.3
2022-12-19T19:31:26.674Z,4.4
2022-12-19T19:34:26.517Z,4.3
2022-12-19T19:37:26.523Z,4.3
2022-12-19T19:40:26.577Z,4.4
2022-12-19T19:43:26.527Z,4.4
2022-12-19T19:46:26.594Z,4.5
2022-12-19T19:49:26.528Z,4.5
2022-12-19T19:52:26.544Z,4.5
2022-12-19T19:55:26.553Z,4.5
2022-12-19T19:58:26.579Z,4.5
2022-12-19T20:01:26.665Z,4.6
2022-12-19T20:04:26.629Z,4.6
2022-12-19T20:07:26.567Z,4.7
2022-12-19T20:10:26.589Z,4.7
2022-12-19T20:13:26.587Z,4.8
2022-12-19T20:16:26.670Z,4.9
2022-12-19T20:19:26.588Z,4.9
2022-12-19T20:22:26.607Z,5
2022-12-19T20:25:26.614Z,4.9
2022-12-19T20:28:26.617Z,5
2022-12-19T20:31:26.767Z,5
2022-12-19T20:34:26.674Z,5
2022-12-19T20:37:26.646Z,5
2022-12-19T20:40:26.672Z,5
2022-12-19T20:43:26.667Z,5
2022-12-19T20:46:26.742Z,5
2022-12-19T20:49:26.676Z,5
2022-12-19T20:52:26.711Z,5
2022-12-19T20:55:26.695Z,4.9
2022-12-19T20:58:26.692Z,4.9
2022-12-19T21:01:26.886Z,5
2022-12-19T21:04:26.894Z,5
2022-12-19T21:07:26.717Z,4.9
2022-12-19T21:10:26.765Z,5
2022-12-19T21:13:26.727Z,5
2022-12-19T21:16:26.801Z,5
2022-12-19T21:19:26.761Z,5
2022-12-19T21:22:26.757Z,5
2022-12-19T21:25:26.776Z,5
2022-12-19T21:28:26.796Z,5
2022-12-19T21:31:26.843Z,5
2022-12-19T21:34:26.789Z,5
2022-12-19T21:37:26.794Z,5
2022-12-19T21:40:26.959Z,5
2022-12-19T21:43:26.816Z,5
2022-12-19T21:46:26.896Z,5
2022-12-19T21:49:26.834Z,5
2022-12-19T21:52:26.845Z,5.1
2022-12-19T21:55:26.879Z,5.1
2022-12-19T21:58:26.853Z,5.1
2022-12-19T22:01:27.072Z,5.1
2022-12-19T22:04:26.898Z,5.1
2022-12-19T22:07:26.872Z,5.1
2022-12-19T22:10:26.890Z,5.1
2022-12-19T22:13:26.884Z,5.1
2022-12-19T22:16:26.950Z,5.1
2022-12-19T22:19:26.905Z,5.1
2022-12-19T22:22:26.998Z,5.1
2022-12-19T22:25:26.929Z,5.1
2022-12-19T22:28:26.919Z,5.1
2022-12-19T22:31:26.989Z,5
2022-12-19T22:34:26.923Z,5
2022-12-19T22:37:26.994Z,5
2022-12-19T22:40:27.108Z,5
2022-12-19T22:43:26.933Z,4.9
2022-12-19T22:46:27.074Z,4.9
2022-12-19T22:49:26.938Z,4.9
2022-12-19T22:52:26.941Z,4.9
2022-12-19T22:55:26.946Z,4.9
2022-12-19T22:58:26.974Z,4.9
2022-12-19T23:01:26.997Z,4.9
2022-12-19T23:04:27.022Z,4.9
2022-12-19T23:07:26.949Z,4.9
2022-12-19T23:10:26.969Z,4.9
2022-12-19T23:13:26.953Z,4.9
2022-12-19T23:16:27.024Z,4.9
2022-12-19T23:19:26.952Z,4.9
2022-12-19T23:22:26.960Z,4.9
2022-12-19T23:25:26.960Z,4.9
2022-12-19T23:28:26.979Z,4.9
2022-12-19T23:31:27.021Z,4.9
2022-12-19T23:34:27.001Z,4.9
2022-12-19T23:37:26.988Z,4.9
2022-12-19T23:40:26.987Z,4.8
2022-12-19T23:43:26.982Z,4.8
2022-12-19T23:46:27.092Z,4.8
2022-12-19T23:49:26.986Z,4.9
2022-12-19T23:52:27.013Z,4.9
2022-12-19T23:55:26.988Z,4.8
2022-12-19T23:58:26.994Z,4.8
